sensor_id;sensor_type;location;lat;lon;timestamp;temperature;humidity
75153;HTU21D;63734;45.218;36.708;2023-03-16T00:00:15;8.18;93.86
75153;HTU21D;63734;45.218;36.708;2023-03-16T00:02:42;8.18;93.80
75153;HTU21D;63734;45.218;36.708;2023-03-16T00:05:10;8.19;93.78
75153;HTU21D;63734;45.218;36.708;2023-03-16T00:07:37;8.19;93.74
75153;HTU21D;63734;45.218;36.708;2023-03-16T00:10:04;8.16;93.76
75153;HTU21D;63734;45.218;36.708;2023-03-16T00:12:30;8.14;93.78
75153;HTU21D;63734;45.218;36.708;2023-03-16T00:15:00;8.12;93.88
75153;HTU21D;63734;45.218;36.708;2023-03-16T00:17:26;8.08;94.02
75153;HTU21D;63734;45.218;36.708;2023-03-16T00:19:54;8.04;94.08
75153;HTU21D;63734;45.218;36.708;2023-03-16T00:22:29;8.01;94.17
75153;HTU21D;63734;45.218;36.708;2023-03-16T00:24:55;7.99;94.27
75153;HTU21D;63734;45.218;36.708;2023-03-16T00:27:23;7.94;94.40
75153;HTU21D;63734;45.218;36.708;2023-03-16T00:29:51;7.90;94.64
75153;HTU21D;63734;45.218;36.708;2023-03-16T00:32:25;7.85;94.75
75153;HTU21D;63734;45.218;36.708;2023-03-16T00:34:52;7.83;94.81
75153;HTU21D;63734;45.218;36.708;2023-03-16T00:37:20;7.79;94.89
75153;HTU21D;63734;45.218;36.708;2023-03-16T00:39:48;7.79;94.90
75153;HTU21D;63734;45.218;36.708;2023-03-16T00:42:16;7.81;94.88
75153;HTU21D;63734;45.218;36.708;2023-03-16T00:44:43;7.79;95.13
75153;HTU21D;63734;45.218;36.708;2023-03-16T00:47:10;7.75;95.39
75153;HTU21D;63734;45.218;36.708;2023-03-16T00:49:43;7.73;95.61
75153;HTU21D;63734;45.218;36.708;2023-03-16T00:52:12;7.72;95.62
75153;HTU21D;63734;45.218;36.708;2023-03-16T00:54:42;7.71;95.72
75153;HTU21D;63734;45.218;36.708;2023-03-16T00:57:10;7.71;95.37
75153;HTU21D;63734;45.218;36.708;2023-03-16T00:59:37;7.70;95.49
75153;HTU21D;63734;45.218;36.708;2023-03-16T01:02:05;7.70;95.68
75153;HTU21D;63734;45.218;36.708;2023-03-16T01:04:31;7.70;95.62
75153;HTU21D;63734;45.218;36.708;2023-03-16T01:06:59;7.73;95.47
75153;HTU21D;63734;45.218;36.708;2023-03-16T01:09:25;7.73;95.40
75153;HTU21D;63734;45.218;36.708;2023-03-16T01:11:51;7.73;95.29
75153;HTU21D;63734;45.218;36.708;2023-03-16T01:14:20;7.75;95.17
75153;HTU21D;63734;45.218;36.708;2023-03-16T01:16:47;7.78;95.06
75153;HTU21D;63734;45.218;36.708;2023-03-16T01:19:14;7.81;94.96
75153;HTU21D;63734;45.218;36.708;2023-03-16T01:21:40;7.79;94.93
75153;HTU21D;63734;45.218;36.708;2023-03-16T01:24:09;7.78;94.94
75153;HTU21D;63734;45.218;36.708;2023-03-16T01:26:35;7.76;94.99
75153;HTU21D;63734;45.218;36.708;2023-03-16T01:29:01;7.78;95.00
75153;HTU21D;63734;45.218;36.708;2023-03-16T01:31:28;7.81;95.00
75153;HTU21D;63734;45.218;36.708;2023-03-16T01:33:54;7.79;94.95
75153;HTU21D;63734;45.218;36.708;2023-03-16T01:36:24;7.73;94.98
75153;HTU21D;63734;45.218;36.708;2023-03-16T01:39:10;7.70;95.10
75153;HTU21D;63734;45.218;36.708;2023-03-16T01:41:42;7.64;95.06
75153;HTU21D;63734;45.218;36.708;2023-03-16T01:44:17;7.61;95.14
75153;HTU21D;63734;45.218;36.708;2023-03-16T01:46:45;7.63;95.13
75153;HTU21D;63734;45.218;36.708;2023-03-16T01:49:16;7.62;95.07
75153;HTU21D;63734;45.218;36.708;2023-03-16T01:54:30;7.67;95.10
75153;HTU21D;63734;45.218;36.708;2023-03-16T01:56:59;7.70;94.98
75153;HTU21D;63734;45.218;36.708;2023-03-16T01:59:32;7.73;94.92
75153;HTU21D;63734;45.218;36.708;2023-03-16T02:02:00;7.77;94.81
75153;HTU21D;63734;45.218;36.708;2023-03-16T02:04:54;7.81;94.79
75153;HTU21D;63734;45.218;36.708;2023-03-16T02:07:24;7.82;94.65
75153;HTU21D;63734;45.218;36.708;2023-03-16T02:09:55;7.83;94.65
75153;HTU21D;63734;45.218;36.708;2023-03-16T02:12:23;7.81;94.61
75153;HTU21D;63734;45.218;36.708;2023-03-16T02:14:52;7.82;94.64
75153;HTU21D;63734;45.218;36.708;2023-03-16T02:17:25;7.82;94.62
75153;HTU21D;63734;45.218;36.708;2023-03-16T02:22:45;7.78;94.65
75153;HTU21D;63734;45.218;36.708;2023-03-16T02:25:14;7.76;94.70
75153;HTU21D;63734;45.218;36.708;2023-03-16T02:30:29;7.65;94.96
75153;HTU21D;63734;45.218;36.708;2023-03-16T02:32:59;7.57;95.13
75153;HTU21D;63734;45.218;36.708;2023-03-16T02:35:26;7.54;95.30
75153;HTU21D;63734;45.218;36.708;2023-03-16T02:37:52;7.50;95.42
75153;HTU21D;63734;45.218;36.708;2023-03-16T02:42:58;7.46;95.90
75153;HTU21D;63734;45.218;36.708;2023-03-16T02:45:35;7.46;96.10
75153;HTU21D;63734;45.218;36.708;2023-03-16T02:48:04;7.46;96.18
75153;HTU21D;63734;45.218;36.708;2023-03-16T02:50:32;7.48;95.90
75153;HTU21D;63734;45.218;36.708;2023-03-16T02:52:58;7.48;95.91
75153;HTU21D;63734;45.218;36.708;2023-03-16T02:55:24;7.47;95.94
75153;HTU21D;63734;45.218;36.708;2023-03-16T02:57:51;7.46;95.94
75153;HTU21D;63734;45.218;36.708;2023-03-16T03:00:17;7.44;95.99
75153;HTU21D;63734;45.218;36.708;2023-03-16T03:02:47;7.45;95.93
75153;HTU21D;63734;45.218;36.708;2023-03-16T03:05:13;7.43;95.91
75153;HTU21D;63734;45.218;36.708;2023-03-16T03:07:39;7.43;95.89
75153;HTU21D;63734;45.218;36.708;2023-03-16T03:10:07;7.42;95.87
75153;HTU21D;63734;45.218;36.708;2023-03-16T03:12:33;7.43;95.81
75153;HTU21D;63734;45.218;36.708;2023-03-16T03:15:04;7.46;95.73
75153;HTU21D;63734;45.218;36.708;2023-03-16T03:17:38;7.52;95.58
75153;HTU21D;63734;45.218;36.708;2023-03-16T03:20:04;7.53;95.46
75153;HTU21D;63734;45.218;36.708;2023-03-16T03:22:39;7.57;95.34
75153;HTU21D;63734;45.218;36.708;2023-03-16T03:25:05;7.61;95.24
75153;HTU21D;63734;45.218;36.708;2023-03-16T03:27:31;7.63;95.14
75153;HTU21D;63734;45.218;36.708;2023-03-16T03:29:58;7.64;95.10
75153;HTU21D;63734;45.218;36.708;2023-03-16T03:32:27;7.65;95.01
75153;HTU21D;63734;45.218;36.708;2023-03-16T03:34:53;7.63;95.04
75153;HTU21D;63734;45.218;36.708;2023-03-16T03:37:19;7.59;95.14
75153;HTU21D;63734;45.218;36.708;2023-03-16T03:39:45;7.59;95.21
75153;HTU21D;63734;45.218;36.708;2023-03-16T03:42:17;7.59;95.23
75153;HTU21D;63734;45.218;36.708;2023-03-16T03:44:42;7.59;95.21
75153;HTU21D;63734;45.218;36.708;2023-03-16T03:47:09;7.60;95.14
75153;HTU21D;63734;45.218;36.708;2023-03-16T03:49:35;7.59;95.23
75153;HTU21D;63734;45.218;36.708;2023-03-16T03:52:01;7.56;95.45
75153;HTU21D;63734;45.218;36.708;2023-03-16T03:54:30;7.54;95.70
75153;HTU21D;63734;45.218;36.708;2023-03-16T03:56:57;7.52;95.76
75153;HTU21D;63734;45.218;36.708;2023-03-16T03:59:23;7.50;95.90
75153;HTU21D;63734;45.218;36.708;2023-03-16T04:02:10;7.48;96.13
75153;HTU21D;63734;45.218;36.708;2023-03-16T04:04:45;7.43;96.14
75153;HTU21D;63734;45.218;36.708;2023-03-16T04:07:12;7.41;96.29
75153;HTU21D;63734;45.218;36.708;2023-03-16T04:09:39;7.39;96.40
75153;HTU21D;63734;45.218;36.708;2023-03-16T04:12:10;7.35;96.45
75153;HTU21D;63734;45.218;36.708;2023-03-16T04:14:36;7.33;96.45
75153;HTU21D;63734;45.218;36.708;2023-03-16T04:17:06;7.34;96.41
75153;HTU21D;63734;45.218;36.708;2023-03-16T04:19:35;7.37;96.38
75153;HTU21D;63734;45.218;36.708;2023-03-16T04:22:03;7.37;96.38
75153;HTU21D;63734;45.218;36.708;2023-03-16T04:24:29;7.37;96.47
75153;HTU21D;63734;45.218;36.708;2023-03-16T04:27:00;7.37;96.42
75153;HTU21D;63734;45.218;36.708;2023-03-16T04:29:27;7.39;96.66
75153;HTU21D;63734;45.218;36.708;2023-03-16T04:31:55;7.39;96.56
75153;HTU21D;63734;45.218;36.708;2023-03-16T04:34:23;7.39;96.60
75153;HTU21D;63734;45.218;36.708;2023-03-16T04:36:53;7.41;96.87
75153;HTU21D;63734;45.218;36.708;2023-03-16T04:39:20;7.42;96.92
75153;HTU21D;63734;45.218;36.708;2023-03-16T04:41:46;7.43;96.90
75153;HTU21D;63734;45.218;36.708;2023-03-16T04:44:19;7.46;96.76
75153;HTU21D;63734;45.218;36.708;2023-03-16T04:46:48;7.53;96.52
75153;HTU21D;63734;45.218;36.708;2023-03-16T04:49:16;7.63;96.23
75153;HTU21D;63734;45.218;36.708;2023-03-16T04:51:44;7.70;96.03
75153;HTU21D;63734;45.218;36.708;2023-03-16T04:54:13;7.71;96.01
75153;HTU21D;63734;45.218;36.708;2023-03-16T04:56:42;7.71;96.13
75153;HTU21D;63734;45.218;36.708;2023-03-16T04:59:44;7.67;96.04
75153;HTU21D;63734;45.218;36.708;2023-03-16T05:02:30;7.69;96.02
75153;HTU21D;63734;45.218;36.708;2023-03-16T05:04:59;7.75;95.89
75153;HTU21D;63734;45.218;36.708;2023-03-16T05:07:25;7.76;95.78
75153;HTU21D;63734;45.218;36.708;2023-03-16T05:09:53;7.82;95.73
75153;HTU21D;63734;45.218;36.708;2023-03-16T05:12:20;7.84;95.61
75153;HTU21D;63734;45.218;36.708;2023-03-16T05:14:50;7.88;95.68
75153;HTU21D;63734;45.218;36.708;2023-03-16T05:17:39;7.84;95.55
75153;HTU21D;63734;45.218;36.708;2023-03-16T05:20:09;7.76;95.69
75153;HTU21D;63734;45.218;36.708;2023-03-16T05:22:40;7.70;95.88
75153;HTU21D;63734;45.218;36.708;2023-03-16T05:25:23;7.65;96.07
75153;HTU21D;63734;45.218;36.708;2023-03-16T05:27:52;7.73;96.07
75153;HTU21D;63734;45.218;36.708;2023-03-16T05:30:33;7.83;95.94
75153;HTU21D;63734;45.218;36.708;2023-03-16T05:33:02;7.89;95.77
75153;HTU21D;63734;45.218;36.708;2023-03-16T05:35:29;7.94;95.69
75153;HTU21D;63734;45.218;36.708;2023-03-16T05:38:00;8.03;95.46
75153;HTU21D;63734;45.218;36.708;2023-03-16T05:40:28;8.05;95.48
75153;HTU21D;63734;45.218;36.708;2023-03-16T05:43:03;8.13;95.46
75153;HTU21D;63734;45.218;36.708;2023-03-16T05:45:33;8.20;95.28
75153;HTU21D;63734;45.218;36.708;2023-03-16T05:48:07;8.27;95.16
75153;HTU21D;63734;45.218;36.708;2023-03-16T05:50:41;8.33;95.01
75153;HTU21D;63734;45.218;36.708;2023-03-16T05:53:07;8.34;94.91
75153;HTU21D;63734;45.218;36.708;2023-03-16T05:55:35;8.34;94.89
75153;HTU21D;63734;45.218;36.708;2023-03-16T05:58:04;8.32;94.85
75153;HTU21D;63734;45.218;36.708;2023-03-16T06:00:31;8.33;94.86
75153;HTU21D;63734;45.218;36.708;2023-03-16T06:03:07;8.35;94.81
75153;HTU21D;63734;45.218;36.708;2023-03-16T06:05:36;8.38;94.77
75153;HTU21D;63734;45.218;36.708;2023-03-16T06:08:04;8.42;94.69
75153;HTU21D;63734;45.218;36.708;2023-03-16T06:10:30;8.45;94.63
75153;HTU21D;63734;45.218;36.708;2023-03-16T06:12:56;8.49;94.53
75153;HTU21D;63734;45.218;36.708;2023-03-16T06:15:22;8.53;94.42
75153;HTU21D;63734;45.218;36.708;2023-03-16T06:17:53;8.60;94.30
75153;HTU21D;63734;45.218;36.708;2023-03-16T06:20:19;8.66;94.03
75153;HTU21D;63734;45.218;36.708;2023-03-16T06:22:45;8.68;93.98
75153;HTU21D;63734;45.218;36.708;2023-03-16T06:25:12;8.79;93.92
75153;HTU21D;63734;45.218;36.708;2023-03-16T06:27:41;8.90;93.69
75153;HTU21D;63734;45.218;36.708;2023-03-16T06:30:14;9.00;93.48
75153;HTU21D;63734;45.218;36.708;2023-03-16T06:32:41;9.10;93.20
75153;HTU21D;63734;45.218;36.708;2023-03-16T06:35:08;9.18;92.97
75153;HTU21D;63734;45.218;36.708;2023-03-16T06:37:36;9.22;92.77
75153;HTU21D;63734;45.218;36.708;2023-03-16T06:40:15;9.25;92.57
75153;HTU21D;63734;45.218;36.708;2023-03-16T06:42:41;9.24;92.49
75153;HTU21D;63734;45.218;36.708;2023-03-16T06:45:12;9.24;92.42
75153;HTU21D;63734;45.218;36.708;2023-03-16T06:47:38;9.24;92.35
75153;HTU21D;63734;45.218;36.708;2023-03-16T06:50:04;9.25;92.19
75153;HTU21D;63734;45.218;36.708;2023-03-16T06:52:31;9.24;92.15
75153;HTU21D;63734;45.218;36.708;2023-03-16T06:54:57;9.25;92.14
75153;HTU21D;63734;45.218;36.708;2023-03-16T06:57:24;9.30;91.94
75153;HTU21D;63734;45.218;36.708;2023-03-16T06:59:50;9.34;91.96
75153;HTU21D;63734;45.218;36.708;2023-03-16T07:02:16;9.32;91.79
75153;HTU21D;63734;45.218;36.708;2023-03-16T07:04:44;9.32;91.76
75153;HTU21D;63734;45.218;36.708;2023-03-16T07:07:11;9.31;91.63
75153;HTU21D;63734;45.218;36.708;2023-03-16T07:09:37;9.30;91.64
75153;HTU21D;63734;45.218;36.708;2023-03-16T07:12:03;9.27;91.43
75153;HTU21D;63734;45.218;36.708;2023-03-16T07:14:30;9.26;91.50
75153;HTU21D;63734;45.218;36.708;2023-03-16T07:16:58;9.23;91.37
75153;HTU21D;63734;45.218;36.708;2023-03-16T07:19:26;9.20;91.30
75153;HTU21D;63734;45.218;36.708;2023-03-16T07:21:56;9.18;91.37
75153;HTU21D;63734;45.218;36.708;2023-03-16T07:24:23;9.17;91.36
75153;HTU21D;63734;45.218;36.708;2023-03-16T07:26:49;9.17;91.31
75153;HTU21D;63734;45.218;36.708;2023-03-16T07:29:23;9.14;91.23
75153;HTU21D;63734;45.218;36.708;2023-03-16T07:31:49;9.11;91.14
75153;HTU21D;63734;45.218;36.708;2023-03-16T07:34:20;9.15;91.05
75153;HTU21D;63734;45.218;36.708;2023-03-16T07:36:52;9.09;91.02
75153;HTU21D;63734;45.218;36.708;2023-03-16T07:39:19;9.06;91.02
75153;HTU21D;63734;45.218;36.708;2023-03-16T07:42:05;9.02;90.93
75153;HTU21D;63734;45.218;36.708;2023-03-16T07:44:58;9.02;91.18
75153;HTU21D;63734;45.218;36.708;2023-03-16T07:47:24;8.98;91.10
75153;HTU21D;63734;45.218;36.708;2023-03-16T07:49:53;8.91;91.23
75153;HTU21D;63734;45.218;36.708;2023-03-16T07:52:19;8.91;91.28
75153;HTU21D;63734;45.218;36.708;2023-03-16T07:54:46;8.90;91.19
75153;HTU21D;63734;45.218;36.708;2023-03-16T07:57:13;8.77;91.25
75153;HTU21D;63734;45.218;36.708;2023-03-16T07:59:43;8.74;91.44
75153;HTU21D;63734;45.218;36.708;2023-03-16T08:02:17;8.73;91.53
75153;HTU21D;63734;45.218;36.708;2023-03-16T08:04:44;8.76;91.50
75153;HTU21D;63734;45.218;36.708;2023-03-16T08:07:14;8.81;91.45
75153;HTU21D;63734;45.218;36.708;2023-03-16T08:10:12;8.86;91.28
75153;HTU21D;63734;45.218;36.708;2023-03-16T08:12:52;8.85;91.27
75153;HTU21D;63734;45.218;36.708;2023-03-16T08:15:18;8.88;91.31
75153;HTU21D;63734;45.218;36.708;2023-03-16T08:17:47;8.91;91.40
75153;HTU21D;63734;45.218;36.708;2023-03-16T08:20:19;8.92;91.40
75153;HTU21D;63734;45.218;36.708;2023-03-16T08:22:46;9.01;91.49
75153;HTU21D;63734;45.218;36.708;2023-03-16T08:25:17;9.20;91.32
75153;HTU21D;63734;45.218;36.708;2023-03-16T08:27:57;9.37;90.88
75153;HTU21D;63734;45.218;36.708;2023-03-16T08:30:24;9.45;90.59
75153;HTU21D;63734;45.218;36.708;2023-03-16T08:33:08;9.53;90.43
75153;HTU21D;63734;45.218;36.708;2023-03-16T08:35:34;9.68;90.34
75153;HTU21D;63734;45.218;36.708;2023-03-16T08:38:01;9.90;89.89
75153;HTU21D;63734;45.218;36.708;2023-03-16T08:40:27;10.00;89.45
75153;HTU21D;63734;45.218;36.708;2023-03-16T08:42:55;10.09;89.25
75153;HTU21D;63734;45.218;36.708;2023-03-16T08:45:21;10.20;89.09
75153;HTU21D;63734;45.218;36.708;2023-03-16T08:47:48;10.25;88.72
75153;HTU21D;63734;45.218;36.708;2023-03-16T08:50:15;10.36;88.83
75153;HTU21D;63734;45.218;36.708;2023-03-16T08:52:41;10.53;88.43
75153;HTU21D;63734;45.218;36.708;2023-03-16T08:55:08;10.64;88.31
75153;HTU21D;63734;45.218;36.708;2023-03-16T08:57:36;10.73;87.87
75153;HTU21D;63734;45.218;36.708;2023-03-16T09:00:04;10.80;87.67
75153;HTU21D;63734;45.218;36.708;2023-03-16T09:02:38;10.84;87.57
75153;HTU21D;63734;45.218;36.708;2023-03-16T09:05:10;10.92;87.44
75153;HTU21D;63734;45.218;36.708;2023-03-16T09:07:37;11.05;87.31
75153;HTU21D;63734;45.218;36.708;2023-03-16T09:10:05;11.23;86.94
75153;HTU21D;63734;45.218;36.708;2023-03-16T09:12:34;11.33;86.23
75153;HTU21D;63734;45.218;36.708;2023-03-16T09:15:01;11.33;85.75
75153;HTU21D;63734;45.218;36.708;2023-03-16T09:17:27;11.31;85.81
75153;HTU21D;63734;45.218;36.708;2023-03-16T09:19:53;11.39;86.17
75153;HTU21D;63734;45.218;36.708;2023-03-16T09:22:20;11.54;86.00
75153;HTU21D;63734;45.218;36.708;2023-03-16T09:24:47;11.58;85.71
75153;HTU21D;63734;45.218;36.708;2023-03-16T09:27:13;11.64;85.55
75153;HTU21D;63734;45.218;36.708;2023-03-16T09:29:41;11.74;85.40
75153;HTU21D;63734;45.218;36.708;2023-03-16T09:32:08;11.79;85.13
75153;HTU21D;63734;45.218;36.708;2023-03-16T09:34:34;11.91;84.73
75153;HTU21D;63734;45.218;36.708;2023-03-16T09:37:00;11.97;84.49
75153;HTU21D;63734;45.218;36.708;2023-03-16T09:39:27;12.00;83.74
75153;HTU21D;63734;45.218;36.708;2023-03-16T09:42:01;12.00;84.10
75153;HTU21D;63734;45.218;36.708;2023-03-16T09:45:12;12.06;83.99
75153;HTU21D;63734;45.218;36.708;2023-03-16T09:47:39;12.14;83.55
75153;HTU21D;63734;45.218;36.708;2023-03-16T09:50:12;12.20;83.29
75153;HTU21D;63734;45.218;36.708;2023-03-16T09:52:56;12.25;83.02
75153;HTU21D;63734;45.218;36.708;2023-03-16T09:55:31;12.28;82.65
75153;HTU21D;63734;45.218;36.708;2023-03-16T09:58:00;12.19;82.67
75153;HTU21D;63734;45.218;36.708;2023-03-16T10:00:54;12.10;82.55
75153;HTU21D;63734;45.218;36.708;2023-03-16T10:04:07;11.98;82.14
75153;HTU21D;63734;45.218;36.708;2023-03-16T10:06:30;11.98;82.26
75153;HTU21D;63734;45.218;36.708;2023-03-16T10:09:06;12.15;82.49
75153;HTU21D;63734;45.218;36.708;2023-03-16T10:11:46;12.25;81.65
75153;HTU21D;63734;45.218;36.708;2023-03-16T10:14:34;12.26;81.93
75153;HTU21D;63734;45.218;36.708;2023-03-16T10:17:22;12.43;81.73
75153;HTU21D;63734;45.218;36.708;2023-03-16T10:20:01;12.59;81.36
75153;HTU21D;63734;45.218;36.708;2023-03-16T10:22:36;12.64;80.44
75153;HTU21D;63734;45.218;36.708;2023-03-16T10:27:40;12.52;80.41
75153;HTU21D;63734;45.218;36.708;2023-03-16T10:32:50;12.79;79.74
75153;HTU21D;63734;45.218;36.708;2023-03-16T10:37:48;12.87;78.87
75153;HTU21D;63734;45.218;36.708;2023-03-16T10:40:14;12.82;78.46
75153;HTU21D;63734;45.218;36.708;2023-03-16T10:42:41;12.74;78.66
75153;HTU21D;63734;45.218;36.708;2023-03-16T10:45:31;12.69;78.58
75153;HTU21D;63734;45.218;36.708;2023-03-16T10:48:14;12.65;78.26
75153;HTU21D;63734;45.218;36.708;2023-03-16T10:50:41;12.47;77.98
75153;HTU21D;63734;45.218;36.708;2023-03-16T10:53:29;12.31;78.59
75153;HTU21D;63734;45.218;36.708;2023-03-16T10:56:07;12.23;79.04
75153;HTU21D;63734;45.218;36.708;2023-03-16T10:58:41;12.26;79.06
75153;HTU21D;63734;45.218;36.708;2023-03-16T11:01:17;12.18;78.85
75153;HTU21D;63734;45.218;36.708;2023-03-16T11:03:50;12.00;79.09
75153;HTU21D;63734;45.218;36.708;2023-03-16T11:06:24;11.86;79.83
75153;HTU21D;63734;45.218;36.708;2023-03-16T11:08:51;11.91;79.99
75153;HTU21D;63734;45.218;36.708;2023-03-16T11:11:31;11.90;80.24
75153;HTU21D;63734;45.218;36.708;2023-03-16T11:14:00;11.86;80.13
75153;HTU21D;63734;45.218;36.708;2023-03-16T11:16:46;11.84;80.52
75153;HTU21D;63734;45.218;36.708;2023-03-16T11:19:55;12.05;80.73
75153;HTU21D;63734;45.218;36.708;2023-03-16T11:22:26;12.23;80.35
75153;HTU21D;63734;45.218;36.708;2023-03-16T11:30:39;12.41;79.63
75153;HTU21D;63734;45.218;36.708;2023-03-16T11:33:11;12.31;79.80
75153;HTU21D;63734;45.218;36.708;2023-03-16T11:39:07;12.38;80.12
75153;HTU21D;63734;45.218;36.708;2023-03-16T11:50:00;12.19;79.94
75153;HTU21D;63734;45.218;36.708;2023-03-16T12:06:32;11.99;80.76
75153;HTU21D;63734;45.218;36.708;2023-03-16T12:14:58;11.94;81.05
75153;HTU21D;63734;45.218;36.708;2023-03-16T12:17:29;12.02;81.11
75153;HTU21D;63734;45.218;36.708;2023-03-16T12:20:09;12.07;81.02
75153;HTU21D;63734;45.218;36.708;2023-03-16T12:23:03;12.08;81.02
75153;HTU21D;63734;45.218;36.708;2023-03-16T12:25:35;12.18;81.03
75153;HTU21D;63734;45.218;36.708;2023-03-16T12:28:09;12.27;80.86
75153;HTU21D;63734;45.218;36.708;2023-03-16T12:36:43;12.48;80.62
75153;HTU21D;63734;45.218;36.708;2023-03-16T12:39:27;12.50;80.65
75153;HTU21D;63734;45.218;36.708;2023-03-16T12:49:53;12.18;81.49
75153;HTU21D;63734;45.218;36.708;2023-03-16T12:52:21;12.38;81.23
75153;HTU21D;63734;45.218;36.708;2023-03-16T12:54:52;12.53;80.66
75153;HTU21D;63734;45.218;36.708;2023-03-16T12:57:21;12.57;80.22
75153;HTU21D;63734;45.218;36.708;2023-03-16T12:59:55;12.57;80.26
75153;HTU21D;63734;45.218;36.708;2023-03-16T13:02:29;12.57;80.42
75153;HTU21D;63734;45.218;36.708;2023-03-16T13:05:17;12.56;81.22
75153;HTU21D;63734;45.218;36.708;2023-03-16T13:08:04;12.56;81.62
75153;HTU21D;63734;45.218;36.708;2023-03-16T13:10:31;12.57;82.10
75153;HTU21D;63734;45.218;36.708;2023-03-16T13:13:11;12.52;82.69
75153;HTU21D;63734;45.218;36.708;2023-03-16T13:15:38;12.49;83.46
75153;HTU21D;63734;45.218;36.708;2023-03-16T13:20:47;12.64;83.19
75153;HTU21D;63734;45.218;36.708;2023-03-16T13:26:10;12.74;83.00
75153;HTU21D;63734;45.218;36.708;2023-03-16T13:28:37;12.63;83.20
75153;HTU21D;63734;45.218;36.708;2023-03-16T13:31:19;12.52;83.58
75153;HTU21D;63734;45.218;36.708;2023-03-16T13:33:48;12.40;83.97
75153;HTU21D;63734;45.218;36.708;2023-03-16T13:36:16;12.30;84.18
75153;HTU21D;63734;45.218;36.708;2023-03-16T13:38:42;12.12;84.84
75153;HTU21D;63734;45.218;36.708;2023-03-16T13:41:19;11.94;85.55
75153;HTU21D;63734;45.218;36.708;2023-03-16T13:43:46;11.78;86.41
75153;HTU21D;63734;45.218;36.708;2023-03-16T13:46:14;11.66;86.74
75153;HTU21D;63734;45.218;36.708;2023-03-16T13:48:40;11.56;86.96
75153;HTU21D;63734;45.218;36.708;2023-03-16T13:51:13;11.48;87.61
75153;HTU21D;63734;45.218;36.708;2023-03-16T13:53:40;11.37;88.12
75153;HTU21D;63734;45.218;36.708;2023-03-16T13:56:15;11.30;88.44
75153;HTU21D;63734;45.218;36.708;2023-03-16T13:58:45;11.24;88.67
75153;HTU21D;63734;45.218;36.708;2023-03-16T14:01:23;0.00;89.05
75153;HTU21D;63734;45.218;36.708;2023-03-16T14:03:50;11.16;89.69
75153;HTU21D;63734;45.218;36.708;2023-03-16T14:06:23;11.12;89.72
75153;HTU21D;63734;45.218;36.708;2023-03-16T14:08:52;11.07;90.44
75153;HTU21D;63734;45.218;36.708;2023-03-16T14:11:19;10.95;91.75
75153;HTU21D;63734;45.218;36.708;2023-03-16T14:13:53;10.90;91.75
75153;HTU21D;63734;45.218;36.708;2023-03-16T14:16:22;10.88;92.27
75153;HTU21D;63734;45.218;36.708;2023-03-16T14:19:05;10.93;91.79
75153;HTU21D;63734;45.218;36.708;2023-03-16T14:21:33;10.95;91.52
75153;HTU21D;63734;45.218;36.708;2023-03-16T14:24:04;10.97;91.40
75153;HTU21D;63734;45.218;36.708;2023-03-16T14:26:45;10.96;91.34
75153;HTU21D;63734;45.218;36.708;2023-03-16T14:29:30;10.93;91.42
75153;HTU21D;63734;45.218;36.708;2023-03-16T14:31:57;10.89;91.69
75153;HTU21D;63734;45.218;36.708;2023-03-16T14:34:36;10.88;92.01
75153;HTU21D;63734;45.218;36.708;2023-03-16T14:37:14;10.86;92.11
75153;HTU21D;63734;45.218;36.708;2023-03-16T14:39:56;10.81;92.72
75153;HTU21D;63734;45.218;36.708;2023-03-16T14:42:28;10.77;92.57
75153;HTU21D;63734;45.218;36.708;2023-03-16T14:45:02;10.74;93.14
75153;HTU21D;63734;45.218;36.708;2023-03-16T14:47:38;10.72;93.26
75153;HTU21D;63734;45.218;36.708;2023-03-16T14:50:11;10.67;93.97
75153;HTU21D;63734;45.218;36.708;2023-03-16T14:52:38;10.60;94.53
75153;HTU21D;63734;45.218;36.708;2023-03-16T14:55:16;10.50;94.95
75153;HTU21D;63734;45.218;36.708;2023-03-16T14:57:44;10.44;95.20
75153;HTU21D;63734;45.218;36.708;2023-03-16T15:00:15;10.41;95.16
75153;HTU21D;63734;45.218;36.708;2023-03-16T15:02:53;10.41;95.36
75153;HTU21D;63734;45.218;36.708;2023-03-16T15:05:31;10.38;95.59
75153;HTU21D;63734;45.218;36.708;2023-03-16T15:07:58;10.38;95.49
75153;HTU21D;63734;45.218;36.708;2023-03-16T15:10:27;10.38;96.07
75153;HTU21D;63734;45.218;36.708;2023-03-16T15:12:54;10.36;96.53
75153;HTU21D;63734;45.218;36.708;2023-03-16T15:15:29;10.35;96.46
75153;HTU21D;63734;45.218;36.708;2023-03-16T15:17:55;10.30;96.28
75153;HTU21D;63734;45.218;36.708;2023-03-16T15:20:26;10.30;96.21
75153;HTU21D;63734;45.218;36.708;2023-03-16T15:22:55;10.29;95.95
75153;HTU21D;63734;45.218;36.708;2023-03-16T15:25:37;10.30;95.79
75153;HTU21D;63734;45.218;36.708;2023-03-16T15:28:13;10.27;95.75
75153;HTU21D;63734;45.218;36.708;2023-03-16T15:30:42;10.26;95.55
75153;HTU21D;63734;45.218;36.708;2023-03-16T15:33:10;10.26;95.48
75153;HTU21D;63734;45.218;36.708;2023-03-16T15:35:39;10.23;95.64
75153;HTU21D;63734;45.218;36.708;2023-03-16T15:38:13;10.20;95.59
75153;HTU21D;63734;45.218;36.708;2023-03-16T15:40:41;10.19;95.46
75153;HTU21D;63734;45.218;36.708;2023-03-16T15:43:12;10.19;95.41
75153;HTU21D;63734;45.218;36.708;2023-03-16T15:45:39;10.18;95.33
75153;HTU21D;63734;45.218;36.708;2023-03-16T15:48:06;10.16;95.41
75153;HTU21D;63734;45.218;36.708;2023-03-16T15:50:32;10.14;95.46
75153;HTU21D;63734;45.218;36.708;2023-03-16T15:56:00;10.10;95.43
75153;HTU21D;63734;45.218;36.708;2023-03-16T15:58:28;10.10;95.68
75153;HTU21D;63734;45.218;36.708;2023-03-16T16:00:59;10.09;95.60
75153;HTU21D;63734;45.218;36.708;2023-03-16T16:03:26;10.07;95.71
75153;HTU21D;63734;45.218;36.708;2023-03-16T16:05:53;10.06;95.71
75153;HTU21D;63734;45.218;36.708;2023-03-16T16:08:19;10.06;95.66
75153;HTU21D;63734;45.218;36.708;2023-03-16T16:10:47;10.04;95.62
75153;HTU21D;63734;45.218;36.708;2023-03-16T16:13:26;10.04;95.56
75153;HTU21D;63734;45.218;36.708;2023-03-16T16:15:55;10.03;95.63
75153;HTU21D;63734;45.218;36.708;2023-03-16T16:18:31;9.99;95.95
75153;HTU21D;63734;45.218;36.708;2023-03-16T16:21:04;9.98;96.01
75153;HTU21D;63734;45.218;36.708;2023-03-16T16:23:31;9.98;96.19
75153;HTU21D;63734;45.218;36.708;2023-03-16T16:26:01;9.97;96.04
75153;HTU21D;63734;45.218;36.708;2023-03-16T16:28:31;9.96;96.22
75153;HTU21D;63734;45.218;36.708;2023-03-16T16:30:58;9.95;96.06
75153;HTU21D;63734;45.218;36.708;2023-03-16T16:33:31;9.95;95.99
75153;HTU21D;63734;45.218;36.708;2023-03-16T16:36:00;9.94;96.01
75153;HTU21D;63734;45.218;36.708;2023-03-16T16:38:26;9.93;96.14
75153;HTU21D;63734;45.218;36.708;2023-03-16T16:40:54;9.88;96.51
75153;HTU21D;63734;45.218;36.708;2023-03-16T16:45:54;9.81;96.80
75153;HTU21D;63734;45.218;36.708;2023-03-16T16:48:37;9.78;97.29
75153;HTU21D;63734;45.218;36.708;2023-03-16T16:51:05;9.77;97.00
75153;HTU21D;63734;45.218;36.708;2023-03-16T16:53:34;9.75;97.08